• Join FlightAware (Why Join?)
  • Login
  • US Flag 
03:21AM EST


 

Airport Tracker/Info


-or-


 

Live Flight TrackerFlight Track Log ✈ AWE997 ✈ 12-Apr-2013 ✈ KORD - KPHL

Flight Track Log - Related Links

Times and Time Zones

All times are in EDT time to prevent confusion due to time zone crossing. See the AWE997 flight status page for this flight to view local times or setup timezone preferences in your user account.

Time Position Orientation Groundspeed Altitude Reporting Facility
EDT Latitude Longitude Course Direction KTS MPH feet Rate Location/Type
11:06AM 41.9167 -87.8833 85° East 184 212 2,900  Level Chicago TRACON
11:07AM 41.8833 -87.8167 124° Southeast 256 295 4,500 1,980 Climbing Chicago TRACON
11:08AM 41.9503 -87.3700 97° East  Level FlightAware Approximate
11:09AM 41.9377 -87.1937 95° East  Level FlightAware Approximate
11:09AM 41.8922 -87.6547 86° East 288 331 8,400  Level Chicago Center
11:10AM 41.9333 -87.0169 90° East  Level FlightAware Approximate
11:10AM 41.9003 -87.5414 85° East 301 346 10,600  Level Chicago Center
11:11AM 41.9338 -86.8590 85° East  Level FlightAware Approximate
11:11AM 41.9122 -87.4208 82° East 320 368 12,800  Level Chicago Center
11:12AM 41.9164 -87.2558 88° East 360 414 14,700 1,920 Climbing Chicago Center
11:13AM 41.9081 -87.1144 94° East 378 435 16,800 1,920 Climbing Chicago Center
11:14AM 41.8828 -86.9711 103° East 389 448 18,700 1,740 Climbing Chicago Center
11:15AM 41.8606 -86.8206 101° East 405 466 20,400 1,320 Climbing Chicago Center
11:16AM 41.8497 -86.6536 95° East 431 496 21,500 1,440 Climbing Chicago Center
11:17AM 41.8433 -86.4861 93° East 447 514 23,400 1,440 Climbing Chicago Center
11:18AM 41.8375 -86.3194 93° East 449 517 24,500 1,140 Climbing Chicago Center
11:19AM 41.8306 -86.1472 93° East 458 527 25,800 1,260 Climbing Chicago Center
11:20AM 41.8244 -85.9739 93° East 463 533 27,200 1,200 Climbing Chicago Center
11:21AM 41.8164 -85.8000 93° East 465 535 28,300 1,080 Climbing Chicago Center
11:22AM 41.8092 -85.6217 93° East 473 544 29,500 1,080 Climbing Chicago Center
11:23AM 41.8014 -85.4422 93° East 474 545 30,600 1,080 Climbing Chicago Center
11:24AM 41.7894 -85.2264 94° East 475 547 31,800 1,020 Climbing Chicago Center
11:25AM 41.7756 -85.0861 98° East 477 549 32,600 900 Climbing Cleveland Center
11:26AM 41.7464 -84.9197 103° East 472 543 33,600 960 Climbing Cleveland Center
11:27AM 41.7175 -84.7481 103° East 467 537 34,600 660 Climbing Cleveland Center
11:28AM 41.6864 -84.5681 103° East 467 537 35,000 180 Climbing Cleveland Center
11:29AM 41.6547 -84.3936 104° East 462 532 35,000  Level Cleveland Center
11:30AM 41.6189 -84.2164 105° East 473 544 35,000  Level Cleveland Center
11:31AM 41.5869 -84.0369 103° East 489 563 35,000  Level Cleveland Center
11:32AM 41.5547 -83.8547 103° East 494 568 35,000  Level Cleveland Center
11:33AM 41.5200 -83.6783 105° East 494 568 35,000  Level Cleveland Center
11:34AM 41.4869 -83.5019 104° East 494 568 35,000  Level Cleveland Center
11:35AM 41.4539 -83.3206 104° East 494 568 35,000  Level Cleveland Center
11:36AM 41.4244 -83.1614 104° East 494 568 35,000  Level Cleveland Center
11:37AM 41.3906 -82.9856 104° East 494 568 35,000  Level Cleveland Center
11:38AM 41.3567 -82.8072 104° East 499 574 35,000  Level Cleveland Center
11:39AM 41.3225 -82.6264 104° East 494 568 35,000  Level Cleveland Center
11:40AM 41.2881 -82.4511 105° East 494 568 35,000  Level Cleveland Center
11:41AM 41.2533 -82.2733 105° East 494 568 35,000  Level Cleveland Center
11:42AM 41.2203 -82.0986 104° East 494 568 35,000  Level Cleveland Center
11:43AM 41.1869 -81.9239 104° East 494 568 35,000  Level Cleveland Center
11:44AM 41.1514 -81.7469 105° East 494 568 35,000  Level Cleveland Center
11:45AM 41.1136 -81.5725 106° East 494 568 35,000  Level Cleveland Center
11:46AM 41.0775 -81.3983 105° East 494 568 35,100  Climbing Cleveland Center
11:47AM 41.0408 -81.2217 105° East 494 568 35,000 -60 Descending Cleveland Center
11:48AM 41.0064 -81.0425 104° East 500 575 35,000  Level Cleveland Center
11:49AM 40.9672 -80.8692 107° East 495 570 35,000  Level Cleveland Center
11:50AM 40.9322 -80.6931 105° East 495 570 35,000  Level Cleveland Center
11:51AM 40.8928 -80.5144 106° East 495 570 35,000  Level Cleveland Center
11:52AM 40.8550 -80.3525 107° East 495 570 35,000  Level Cleveland Center
11:53AM 40.8064 -80.1633 109° East 495 570 35,000  Level Cleveland Center
11:54AM 40.7494 -79.9994 115° Southeast 495 570 35,000  Level Cleveland Center
11:55AM 40.6900 -79.8328 115° Southeast 495 570 35,000  Level Cleveland Center
11:56AM 40.6306 -79.6747 116° Southeast 495 570 35,000  Level Cleveland Center
11:57AM 40.5894 -79.4978 107° East 495 570 35,000  Level Cleveland Center
11:58AM 40.5644 -79.2986 99° East 495 570 35,000 -780 Level Cleveland Center
11:59AM 40.5433 -79.1131 98° East 501 577 33,500 -1,800 Descending Cleveland Center
12:00PM 40.5242 -78.9333 98° East 506 582 31,500 -1,920 Descending Cleveland Center
12:01PM 40.5028 -78.7536 99° East 501 577 29,700 -1,800 Descending Cleveland Center
12:02PM 40.4831 -78.5794 98° East 495 570 28,000 -1,620 Descending Cleveland Center
12:03PM 40.4589 -78.3714 99° East 485 558 25,900 -1,320 Descending New York Center
12:04PM 40.4394 -78.1836 98° East 473 544 25,000 -480 Descending New York Center
12:05PM 40.4183 -78.0178 99° East 467 537 25,000  Level New York Center
12:06PM 40.3978 -77.8439 99° East 473 544 25,000  Level New York Center
12:07PM 40.3686 -77.6664 102° East 478 550 25,000 -1,380 Level New York Center
12:08PM 40.3389 -77.4944 103° East 483 556 22,200 -2,160 Descending New York Center
12:09PM 40.3089 -77.3256 103° East 483 556 20,700 -1,440 Descending New York Center
12:10PM 40.2814 -77.1786 104° East 470 541 19,400 -1,560 Descending New York Center
12:11PM 40.2492 -77.0017 103° East 453 521 17,600 -1,200 Descending New York Center
12:12PM 40.2217 -76.8494 103° East 446 513 17,000 -960 Descending New York Center
12:13PM 40.1975 -76.7089 103° East 437 503 15,700 -1,620 Descending New York Center
12:14PM 40.1681 -76.5461 103° East 425 489 13,900 -1,740 Descending New York Center
12:15PM 40.1417 -76.4025 103° East 418 481 12,300 -1,560 Descending New York Center
12:16PM 40.1306 -76.3486 105° East 404 465 11,800 -1,440 Descending FAA TRACON SMA TRACON (SMA)
12:16PM 40.1228 -76.3031 103° East 401 461 11,300 -1,500 Descending FAA TRACON SMA TRACON (SMA)
12:16PM 40.1172 -76.2597 100° East 400 460 10,800 -1,680 Descending FAA TRACON SMA TRACON (SMA)
12:17PM 40.1144 -76.2069 94° East 405 466 10,200 -1,080 Descending FAA TRACON SMA TRACON (SMA)
12:17PM 40.1111 -76.1600 95° East 394 453 10,100 -300 Descending FAA TRACON SMA TRACON (SMA)
12:17PM 40.1086 -76.1172 94° East 386 444 10,000 -300 Descending FAA TRACON SMA TRACON (SMA)
12:18PM 40.1053 -76.0681 95° East 359 413 9,900 -600 Descending FAA TRACON SMA TRACON (SMA)
12:18PM 40.1039 -76.0325 93° East 329 379 9,600 -1,380 Descending FAA TRACON SMA TRACON (SMA)
12:18PM 40.1000 -75.9967 98° East 315 362 9,000 -2,400 Descending FAA TRACON SMA TRACON (SMA)
12:19PM 40.0967 -75.9517 96° East 312 359 8,000 -2,580 Descending FAA TRACON SMA TRACON (SMA)
12:19PM 40.0944 -75.9183 95° East 314 361 7,300 -1,980 Descending FAA TRACON SMA TRACON (SMA)
12:19PM 40.0919 -75.8844 95° East 309 356 6,700 -1,980 Descending FAA TRACON SMA TRACON (SMA)
12:20PM 40.0889 -75.8417 95° East 306 352 6,000 -1,080 Descending FAA TRACON SMA TRACON (SMA)
12:20PM 40.0869 -75.8078 94° East 305 351 6,000  Level FAA TRACON SMA TRACON (SMA)
12:20PM 40.0842 -75.7736 96° East 305 351 6,000  Level FAA TRACON SMA TRACON (SMA)
12:21PM 40.0808 -75.7311 96° East 305 351 6,000  Level FAA TRACON SMA TRACON (SMA)
12:21PM 40.0786 -75.6886 94° East 305 351 6,000  Level FAA TRACON SMA TRACON (SMA)
12:21PM 40.0781 -75.6628 92° East 305 351 6,000  Level FAA TRACON SMA TRACON (SMA)
12:22PM 40.0767 -75.6211 92° East 304 350 6,000  Level FAA TRACON SMA TRACON (SMA)
12:22PM 40.0747 -75.5864 94° East 306 352 6,000  Level FAA TRACON SMA TRACON (SMA)
12:22PM 40.0664 -75.5561 110° East 280 322 6,000  Level FAA TRACON SMA TRACON (SMA)
12:23PM 40.0472 -75.5342 139° Southeast 230 265 6,000  Level FAA TRACON SMA TRACON (SMA)
12:23PM 40.0311 -75.5097 131° Southeast 248 285 6,000  Level FAA TRACON SMA TRACON (SMA)
12:23PM 40.0231 -75.4914 120° Southeast 253 291 6,000  Level FAA TRACON SMA TRACON (SMA)
12:24PM 40.0114 -75.4700 125° Southeast 250 288 6,000  Level FAA TRACON SMA TRACON (SMA)
12:24PM 39.9894 -75.4567 155° Southeast 228 262 6,000  Level FAA TRACON SMA TRACON (SMA)
12:24PM 39.9719 -75.4467 156° South 207 238 6,000  Level FAA TRACON SMA TRACON (SMA)
12:25PM 39.9514 -75.4381 162° South 203 234 6,000  Level FAA TRACON SMA TRACON (SMA)
12:25PM 39.9364 -75.4428 194° South 179 206 6,000  Level FAA TRACON SMA TRACON (SMA)
12:25PM 39.9278 -75.4572 232° Southwest 176 203 6,000  Level FAA TRACON SMA TRACON (SMA)
12:26PM 39.9175 -75.4797 239° Southwest 180 207 6,000  Level FAA TRACON SMA TRACON (SMA)
12:26PM 39.9122 -75.4978 249° West 180 207 6,000  Level FAA TRACON SMA TRACON (SMA)
12:26PM 39.9075 -75.5181 253° West 183 211 6,000 -600 Level FAA TRACON SMA TRACON (SMA)
12:27PM 39.9019 -75.5428 254° West 184 212 5,600 -900 Descending FAA TRACON SMA TRACON (SMA)
12:27PM 39.8975 -75.5625 254° West 184 212 5,400 -1,080 Descending FAA TRACON SMA TRACON (SMA)
12:27PM 39.8933 -75.5814 254° West 180 207 4,900 -1,500 Descending FAA TRACON SMA TRACON (SMA)
12:28PM 39.8814 -75.5969 225° Southwest 182 209 4,400 -1,200 Descending FAA TRACON SMA TRACON (SMA)
12:28PM 39.8656 -75.5947 174° South 176 203 4,100 -600 Descending FAA TRACON SMA TRACON (SMA)
12:28PM 39.8517 -75.5889 162° South 169 194 4,000 -300 Descending FAA TRACON SMA TRACON (SMA)
12:29PM 39.8364 -75.5808 158° South 169 194 3,900 -600 Descending FAA TRACON SMA TRACON (SMA)
12:29PM 39.8275 -75.5633 123° Southeast 184 212 3,600 -900 Descending FAA TRACON SMA TRACON (SMA)
12:29PM 39.8242 -75.5417 101° East 197 227 3,300 -900 Descending FAA TRACON SMA TRACON (SMA)
12:30PM 39.8197 -75.5150 102° East 191 220 3,000 -480 Descending FAA TRACON SMA TRACON (SMA)
12:30PM 39.8178 -75.4939 97° East 196 226 3,000  Level FAA TRACON SMA TRACON (SMA)
12:30PM 39.8217 -75.4703 78° East 201 231 3,000 -300 Level FAA TRACON SMA TRACON (SMA)
12:31PM 39.8272 -75.4458 74° East 199 229 2,800 -600 Descending FAA TRACON SMA TRACON (SMA)